createdAt,value
2022-08-20T00:01:30.030Z,99092.88
2022-08-20T00:04:03.104Z,99092.88
2022-08-20T00:06:31.439Z,99095.28
2022-08-20T00:08:58.632Z,99098.69
2022-08-20T00:11:29.727Z,99085.69
2022-08-20T00:14:01.403Z,99087.53
2022-08-20T00:16:34.642Z,99088.81
2022-08-20T00:19:07.170Z,99095.59
2022-08-20T00:21:47.250Z,99087.44
2022-08-20T00:24:16.545Z,99095.59
2022-08-20T00:26:52.597Z,99099.44
2022-08-20T00:29:22.454Z,99108.06
2022-08-20T00:31:51.684Z,99116.00
2022-08-20T00:34:18.885Z,99106.38
2022-08-20T00:36:56.065Z,99119.38
2022-08-20T00:39:25.144Z,99103.00
2022-08-20T00:41:52.700Z,99094.81
2022-08-20T00:44:33.199Z,99099.06
2022-08-20T00:47:05.497Z,99104.47
2022-08-20T00:49:34.766Z,99106.31
2022-08-20T00:52:23.091Z,99103.63
2022-08-20T00:54:58.451Z,99092.19
2022-08-20T00:57:46.110Z,99086.94
2022-08-20T01:00:38.735Z,99088.91
2022-08-20T01:03:22.124Z,99083.25
2022-08-20T01:05:55.254Z,99080.56
2022-08-20T01:08:28.616Z,99076.91
2022-08-20T01:11:16.937Z,99083.69
2022-08-20T01:13:46.393Z,99076.78
2022-08-20T01:16:25.281Z,99088.09
2022-08-20T01:19:02.902Z,99081.00
2022-08-20T01:21:34.088Z,99078.19
2022-08-20T01:24:14.313Z,99075.91
2022-08-20T01:26:49.548Z,99075.63
2022-08-20T01:29:25.771Z,99074.78
2022-08-20T01:32:01.785Z,99072.69
2022-08-20T01:34:31.070Z,99070.81
2022-08-20T01:37:02.618Z,99065.16
2022-08-20T01:39:35.549Z,99057.28
2022-08-20T01:42:08.502Z,99056.16
2022-08-20T01:48:17.414Z,99060.94
2022-08-20T01:51:05.112Z,99055.56
2022-08-20T01:53:47.753Z,99044.38
2022-08-20T01:56:22.645Z,99036.63
2022-08-20T01:58:59.135Z,99030.41
2022-08-20T02:01:53.722Z,99028.44
2022-08-20T02:04:28.161Z,99018.38
2022-08-20T02:07:13.222Z,99025.19
2022-08-20T02:09:58.672Z,99016.00
2022-08-20T02:12:26.131Z,99017.41
2022-08-20T02:14:58.378Z,99027.44
2022-08-20T02:17:39.836Z,99016.25
2022-08-20T02:20:16.987Z,99018.09
2022-08-20T02:23:30.245Z,99020.38
2022-08-20T02:26:03.288Z,99018.81
2022-08-20T02:28:33.574Z,99032.38
2022-08-20T02:31:01.902Z,99043.28
2022-08-20T02:33:29.076Z,99071.13
2022-08-20T02:36:04.441Z,99078.59
2022-08-20T02:38:31.415Z,99081.56
2022-08-20T02:41:02.531Z,99089.63
2022-08-20T02:43:32.494Z,99088.09
2022-08-20T02:46:09.215Z,99088.75
2022-08-20T02:48:36.384Z,99087.34
2022-08-20T02:51:07.347Z,99086.06
2022-08-20T02:53:39.149Z,99093.34
2022-08-20T02:56:06.643Z,99085.75
2022-08-20T02:58:36.211Z,99075.53
2022-08-20T03:01:08.257Z,99081.91
2022-08-20T03:03:44.826Z,99087.72
2022-08-20T03:06:14.846Z,99086.88
2022-08-20T03:08:59.498Z,99091.66
2022-08-20T03:11:27.745Z,99100.44
2022-08-20T03:14:02.601Z,99115.44
2022-08-20T03:16:29.646Z,99115.97
2022-08-20T03:18:57.602Z,99108.31
2022-08-20T03:21:24.751Z,99102.06
2022-08-20T03:23:58.587Z,99110.41
2022-08-20T03:26:25.503Z,99118.97
2022-08-20T03:28:55.489Z,99128.00
2022-08-20T03:31:37.213Z,99127.66
2022-08-20T03:34:06.432Z,99122.56
2022-08-20T03:36:34.657Z,99129.94
2022-08-20T03:39:06.935Z,99108.47
2022-08-20T03:41:35.181Z,99103.84
2022-08-20T03:44:04.873Z,99099.47
2022-08-20T03:46:34.453Z,99099.34
2022-08-20T03:49:02.578Z,99090.19
2022-08-20T03:51:31.729Z,99080.69
2022-08-20T03:54:46.609Z,99072.69
2022-08-20T03:57:24.083Z,99078.09
2022-08-20T03:59:58.299Z,99075.69
2022-08-20T04:02:26.436Z,99079.75
2022-08-20T04:04:53.712Z,99084.00
2022-08-20T04:07:26.206Z,99086.13
2022-08-20T04:09:55.181Z,99081.44
2022-08-20T04:12:23.898Z,99080.91
2022-08-20T04:14:52.832Z,99079.13
2022-08-20T04:17:20.908Z,99081.53
2022-08-20T04:19:49.651Z,99075.41
2022-08-20T04:22:16.821Z,99078.75
2022-08-20T04:24:44.857Z,99068.75
2022-08-20T04:27:15.157Z,99082.19
2022-08-20T04:29:48.333Z,99080.38
2022-08-20T04:32:21.648Z,99081.81
2022-08-20T04:34:52.384Z,99087.03
2022-08-20T04:37:22.934Z,99098.75
2022-08-20T04:40:15.435Z,99104.06
2022-08-20T04:42:43.544Z,99097.75
2022-08-20T04:45:22.372Z,99094.31
2022-08-20T04:47:50.306Z,99082.03
2022-08-20T04:50:19.847Z,99085.00
2022-08-20T04:52:49.961Z,99093.22
2022-08-20T04:55:20.085Z,99092.03
2022-08-20T04:57:47.205Z,99097.84
2022-08-20T05:00:17.658Z,99103.69
2022-08-20T05:02:45.256Z,99102.09
2022-08-20T05:05:13.219Z,99102.44
2022-08-20T05:07:43.484Z,99100.75
2022-08-20T05:10:12.993Z,99102.41
2022-08-20T05:12:42.249Z,99102.06
2022-08-20T05:15:31.976Z,99107.91
2022-08-20T05:18:06.137Z,99100.97
2022-08-20T05:20:51.572Z,99103.22
2022-08-20T05:23:25.779Z,99105.03
2022-08-20T05:25:53.175Z,99106.31
2022-08-20T05:28:23.406Z,99104.91
2022-08-20T05:30:53.166Z,99099.38
2022-08-20T05:33:22.889Z,99098.41
2022-08-20T05:35:54.352Z,99097.19
2022-08-20T05:38:36.930Z,99100.28
2022-08-20T05:41:29.729Z,99098.31
2022-08-20T05:44:13.833Z,99082.72
2022-08-20T05:46:44.268Z,99082.75
2022-08-20T05:49:16.573Z,99075.13
2022-08-20T05:51:51.563Z,99078.50
2022-08-20T05:54:21.415Z,99078.22
2022-08-20T05:57:05.253Z,99079.66
2022-08-20T05:59:34.690Z,99083.00
2022-08-20T06:03:01.124Z,99080.28
2022-08-20T06:05:29.751Z,99079.31
2022-08-20T06:07:57.942Z,99081.47
2022-08-20T06:10:38.667Z,99080.44
2022-08-20T06:13:10.023Z,99082.75
2022-08-20T06:15:41.456Z,99093.63
2022-08-20T06:18:28.231Z,99098.31
2022-08-20T06:20:57.968Z,99099.72
2022-08-20T06:23:26.234Z,99104.94
2022-08-20T06:25:53.312Z,99114.69
2022-08-20T06:28:20.963Z,99111.56
2022-08-20T06:30:54.897Z,99127.28
2022-08-20T06:33:24.097Z,99114.28
2022-08-20T06:35:52.180Z,99126.00
2022-08-20T06:38:27.520Z,99129.84
2022-08-20T06:41:00.920Z,99128.41
2022-08-20T06:43:43.341Z,99129.53
2022-08-20T06:46:17.660Z,99140.44
2022-08-20T06:48:45.819Z,99134.91
2022-08-20T06:51:14.179Z,99139.84
2022-08-20T06:53:44.420Z,99125.84
2022-08-20T06:56:14.625Z,99129.69
2022-08-20T06:58:57.902Z,99117.88
2022-08-20T07:01:28.244Z,99120.28
2022-08-20T07:03:59.801Z,99118.72
2022-08-20T07:06:27.412Z,99126.34
2022-08-20T07:08:56.256Z,99126.38
2022-08-20T07:11:29.355Z,99131.00
2022-08-20T07:14:23.261Z,99119.81
2022-08-20T07:17:30.595Z,99123.00
2022-08-20T07:20:09.040Z,99136.19
2022-08-20T07:22:44.569Z,99143.19
2022-08-20T07:25:15.846Z,99139.09
2022-08-20T07:27:44.121Z,99130.47
2022-08-20T07:30:56.549Z,99138.38
2022-08-20T07:33:28.869Z,99136.78
2022-08-20T07:36:00.950Z,99146.59
2022-08-20T07:38:30.678Z,99153.53
2022-08-20T07:41:13.820Z,99146.06
2022-08-20T07:43:45.611Z,99151.47
2022-08-20T07:46:16.637Z,99149.78
2022-08-20T07:48:47.361Z,99139.59
2022-08-20T07:51:18.094Z,99132.41
2022-08-20T07:53:47.665Z,99124.50
2022-08-20T07:56:19.546Z,99136.53
2022-08-20T07:58:53.526Z,99130.25
2022-08-20T08:01:26.378Z,99123.38
2022-08-20T08:03:58.064Z,99124.59
2022-08-20T08:06:29.793Z,99125.81
2022-08-20T08:09:04.677Z,99129.41
2022-08-20T08:11:38.708Z,99132.44
2022-08-20T08:14:10.579Z,99132.59
2022-08-20T08:16:39.775Z,99131.34
2022-08-20T08:19:12.172Z,99138.06
2022-08-20T08:21:52.714Z,99143.91
2022-08-20T08:24:21.848Z,99143.06
2022-08-20T08:26:52.836Z,99150.06
2022-08-20T08:29:20.905Z,99152.38
2022-08-20T08:31:47.945Z,99148.75
2022-08-20T08:34:16.192Z,99144.59
2022-08-20T08:36:56.853Z,99151.38
2022-08-20T08:39:33.441Z,99157.53
2022-08-20T08:42:05.399Z,99162.47
2022-08-20T08:44:41.913Z,99164.63
2022-08-20T08:47:25.398Z,99161.53
2022-08-20T08:50:02.990Z,99150.31
2022-08-20T08:52:42.710Z,99141.06
2022-08-20T08:55:16.834Z,99143.16
2022-08-20T08:57:43.963Z,99140.47
2022-08-20T09:00:17.872Z,99142.25
2022-08-20T09:03:17.657Z,99140.50
2022-08-20T09:05:57.519Z,99142.69
2022-08-20T09:08:51.785Z,99144.66
2022-08-20T09:11:21.024Z,99136.84
2022-08-20T09:13:48.654Z,99146.81
2022-08-20T09:16:25.326Z,99142.13
2022-08-20T09:19:07.339Z,99140.13
2022-08-20T09:21:35.465Z,99145.16
2022-08-20T09:24:02.901Z,99139.59
2022-08-20T09:26:30.227Z,99128.53
2022-08-20T09:28:57.277Z,99139.72
2022-08-20T09:31:25.396Z,99148.34
2022-08-20T09:33:54.438Z,99146.19
2022-08-20T09:36:31.415Z,99142.00
2022-08-20T09:39:05.460Z,99140.75
2022-08-20T09:41:40.666Z,99139.09
2022-08-20T09:44:11.778Z,99155.72
2022-08-20T09:46:45.692Z,99149.94
2022-08-20T09:49:12.710Z,99149.88
2022-08-20T09:51:41.849Z,99156.56
2022-08-20T09:54:12.287Z,99150.88
2022-08-20T09:56:41.487Z,99152.19
2022-08-20T09:59:08.771Z,99143.91
2022-08-20T10:01:37.862Z,99145.44
2022-08-20T10:04:05.045Z,99154.06
2022-08-20T10:06:37.205Z,99152.84
2022-08-20T10:09:05.018Z,99148.91
2022-08-20T10:11:32.105Z,99153.47
2022-08-20T10:13:59.324Z,99150.22
2022-08-20T10:16:27.377Z,99155.34
2022-08-20T10:19:01.856Z,99155.34
2022-08-20T10:21:33.392Z,99146.41
2022-08-20T10:24:03.989Z,99148.63
2022-08-20T10:26:31.181Z,99146.81
2022-08-20T10:29:01.458Z,99139.31
2022-08-20T10:31:29.673Z,99143.75
2022-08-20T10:33:59.181Z,99144.59
2022-08-20T10:36:27.281Z,99158.50
2022-08-20T10:38:54.517Z,99154.22
2022-08-20T10:41:25.549Z,99165.94
2022-08-20T10:43:52.708Z,99166.59
2022-08-20T10:46:36.417Z,99170.59
2022-08-20T10:49:03.845Z,99178.19
2022-08-20T10:51:32.577Z,99172.09
2022-08-20T10:54:03.268Z,99165.94
2022-08-20T10:56:39.404Z,99156.66
2022-08-20T10:59:06.617Z,99150.53
2022-08-20T11:01:36.727Z,99156.91
2022-08-20T11:04:05.405Z,99158.56
2022-08-20T11:06:32.405Z,99157.81
2022-08-20T11:08:59.505Z,99158.16
2022-08-20T11:11:26.655Z,99154.97
2022-08-20T11:13:55.810Z,99157.69
2022-08-20T11:16:23.558Z,99152.88
2022-08-20T11:18:52.613Z,99153.91
2022-08-20T11:21:22.801Z,99143.13
2022-08-20T11:24:02.221Z,99138.13
2022-08-20T11:26:35.861Z,99139.50
2022-08-20T11:29:03.976Z,99138.19
2022-08-20T11:31:33.296Z,99139.19
2022-08-20T11:34:00.946Z,99134.63
2022-08-20T11:36:28.088Z,99137.34
2022-08-20T11:38:57.564Z,99137.00
2022-08-20T11:41:25.684Z,99134.00
2022-08-20T11:44:24.464Z,99133.72
2022-08-20T11:47:03.669Z,99128.38
2022-08-20T11:49:37.772Z,99131.84
2022-08-20T11:52:06.991Z,99133.94
2022-08-20T11:54:34.331Z,99137.84
2022-08-20T11:57:10.770Z,99125.31
2022-08-20T11:59:38.944Z,99117.38
2022-08-20T12:02:11.640Z,99122.31
2022-08-20T12:04:41.596Z,99115.22
2022-08-20T12:07:14.734Z,99109.41
2022-08-20T12:09:50.982Z,99103.00
2022-08-20T12:12:23.209Z,99109.88
2022-08-20T12:14:52.309Z,99110.47
2022-08-20T12:17:27.057Z,99095.09
2022-08-20T12:19:58.305Z,99104.66
2022-08-20T12:22:26.226Z,99095.31
2022-08-20T12:24:54.557Z,99087.38
2022-08-20T12:27:33.091Z,99090.41
2022-08-20T12:30:05.471Z,99097.38
2022-08-20T12:32:33.242Z,99102.59
2022-08-20T12:35:03.688Z,99089.81
2022-08-20T12:37:32.642Z,99092.06
2022-08-20T12:40:03.680Z,99087.25
2022-08-20T12:42:32.982Z,99085.63
2022-08-20T12:45:01.832Z,99090.09
2022-08-20T12:47:34.467Z,99074.53
2022-08-20T12:50:05.976Z,99081.91
2022-08-20T12:52:35.099Z,99076.38
2022-08-20T12:55:04.262Z,99060.13
2022-08-20T12:57:39.621Z,99054.88
2022-08-20T13:00:16.400Z,99063.69
2022-08-20T13:02:43.771Z,99057.50
2022-08-20T13:05:19.240Z,99061.44
2022-08-20T13:07:47.858Z,99053.53
2022-08-20T13:10:32.842Z,99054.88
2022-08-20T13:13:03.259Z,99046.16
2022-08-20T13:15:33.399Z,99060.28
2022-08-20T13:18:03.182Z,99056.78
2022-08-20T13:20:33.952Z,99069.78
2022-08-20T13:23:05.281Z,99066.31
2022-08-20T13:25:35.655Z,99063.59
2022-08-20T13:28:10.774Z,99061.41
2022-08-20T13:30:41.152Z,99072.59
2022-08-20T13:33:08.433Z,99067.28
2022-08-20T13:35:35.720Z,99091.06
2022-08-20T13:38:06.493Z,99083.56
2022-08-20T13:40:33.714Z,99096.09
2022-08-20T13:43:04.728Z,99093.84
2022-08-20T13:45:34.156Z,99097.25
2022-08-20T13:48:01.178Z,99111.09
2022-08-20T13:50:28.451Z,99105.00
2022-08-20T13:52:56.483Z,99103.13
2022-08-20T13:55:28.150Z,99111.44
2022-08-20T13:57:57.466Z,99112.69
2022-08-20T14:00:35.338Z,99118.06
2022-08-20T14:03:28.005Z,99124.38
2022-08-20T14:05:55.173Z,99116.75
2022-08-20T14:08:24.832Z,99115.84
2022-08-20T14:10:58.553Z,99119.09
2022-08-20T14:13:56.643Z,99109.41
2022-08-20T14:16:28.044Z,99110.03
2022-08-20T14:19:01.258Z,99118.78
2022-08-20T14:21:29.387Z,99113.50
2022-08-20T14:23:58.529Z,99113.34
2022-08-20T14:26:31.320Z,99101.84
2022-08-20T14:28:59.401Z,99102.25
2022-08-20T14:31:26.618Z,99098.97
2022-08-20T14:33:53.679Z,99101.72
2022-08-20T14:36:21.685Z,99095.38
2022-08-20T14:38:55.458Z,99085.25
2022-08-20T14:41:22.542Z,99086.75
2022-08-20T14:43:51.601Z,99091.41
2022-08-20T14:46:25.490Z,99102.50
2022-08-20T14:48:54.912Z,99089.63
2022-08-20T14:51:24.569Z,99089.88
2022-08-20T14:53:51.591Z,99091.75
2022-08-20T14:56:18.861Z,99088.25
2022-08-20T14:58:47.880Z,99083.72
2022-08-20T15:01:15.100Z,99097.47
2022-08-20T15:03:45.244Z,99099.31
2022-08-20T15:06:21.828Z,99097.25
2022-08-20T15:08:51.192Z,99100.13
2022-08-20T15:11:18.686Z,99107.00
2022-08-20T15:13:48.121Z,99110.69
2022-08-20T15:16:19.222Z,99120.06
2022-08-20T15:18:47.286Z,99122.03
2022-08-20T15:21:15.780Z,99120.47
2022-08-20T15:23:52.622Z,99123.53
2022-08-20T15:26:19.983Z,99119.81
2022-08-20T15:28:51.047Z,99123.53
2022-08-20T15:31:25.455Z,99129.94
2022-08-20T15:33:53.646Z,99126.19
2022-08-20T15:36:20.853Z,99117.31
2022-08-20T15:38:50.989Z,99123.00
2022-08-20T15:41:25.030Z,99116.53
2022-08-20T15:44:06.611Z,99110.94
2022-08-20T15:46:36.333Z,99099.22
2022-08-20T15:49:12.770Z,99089.97
2022-08-20T15:51:53.037Z,99089.13
2022-08-20T15:54:27.925Z,99085.00
2022-08-20T15:57:32.135Z,99068.44
2022-08-20T16:01:23.817Z,99072.09
2022-08-20T16:04:06.030Z,99070.66
2022-08-20T16:06:33.790Z,99067.47
2022-08-20T16:09:12.347Z,99069.38
2022-08-20T16:11:58.772Z,99063.91
2022-08-20T16:14:36.688Z,99057.66
2022-08-20T16:17:13.230Z,99063.50
2022-08-20T16:19:59.318Z,99061.78
2022-08-20T16:22:30.887Z,99059.97
2022-08-20T16:25:00.635Z,99059.25
2022-08-20T16:27:54.660Z,99061.00
2022-08-20T16:30:40.745Z,99047.03
2022-08-20T16:33:19.664Z,99046.63
2022-08-20T16:36:24.016Z,99042.84
2022-08-20T16:39:06.075Z,99049.91
2022-08-20T16:41:40.405Z,99048.16
2022-08-20T16:44:24.789Z,99039.41
2022-08-20T16:47:23.703Z,99046.13
2022-08-20T16:50:06.392Z,99054.81
2022-08-20T16:52:33.621Z,99059.25
2022-08-20T16:55:01.707Z,99056.97
2022-08-20T16:57:29.611Z,99074.81
2022-08-20T16:59:59.921Z,99078.91
2022-08-20T17:02:48.994Z,99084.56
2022-08-20T17:05:49.051Z,99090.09
2022-08-20T17:08:41.838Z,99099.78
2022-08-20T17:11:17.386Z,99098.53
2022-08-20T17:13:48.938Z,99110.63
2022-08-20T17:16:15.949Z,99109.13
2022-08-20T17:18:52.586Z,99104.66
2022-08-20T17:21:28.666Z,99108.03
2022-08-20T17:23:59.622Z,99111.81
2022-08-20T17:26:32.613Z,99109.78
2022-08-20T17:29:13.187Z,99129.56
2022-08-20T17:31:44.064Z,99131.06
2022-08-20T17:34:17.715Z,99136.09
2022-08-20T17:37:11.080Z,99131.09
2022-08-20T17:39:48.389Z,99141.03
2022-08-20T17:42:19.422Z,99138.66
2022-08-20T17:45:14.582Z,99139.53
2022-08-20T17:47:44.193Z,99136.59
2022-08-20T17:50:31.801Z,99166.72
2022-08-20T17:53:11.091Z,99169.97
2022-08-20T17:55:53.854Z,99179.34
2022-08-20T17:58:32.905Z,99183.34
2022-08-20T18:01:00.713Z,99185.03
2022-08-20T18:03:28.061Z,99178.00
2022-08-20T18:06:03.369Z,99167.88
2022-08-20T18:08:44.056Z,99171.97
2022-08-20T18:11:18.912Z,99169.41
2022-08-20T18:14:00.745Z,99178.28
2022-08-20T18:16:44.664Z,99180.34
2022-08-20T18:19:26.268Z,99185.84
2022-08-20T18:22:29.254Z,99184.03
2022-08-20T18:25:07.947Z,99183.56
2022-08-20T18:27:44.656Z,99192.09
2022-08-20T18:30:18.848Z,99172.06
2022-08-20T18:32:51.145Z,99184.66
2022-08-20T18:35:38.078Z,99186.06
2022-08-20T18:38:31.137Z,99188.88
2022-08-20T18:41:42.990Z,99187.63
2022-08-20T18:44:44.119Z,99187.53
2022-08-20T18:48:05.225Z,99193.66
2022-08-20T18:50:48.326Z,99207.56
2022-08-20T18:53:51.903Z,99206.16
2022-08-20T18:56:34.141Z,99204.75
2022-08-20T18:59:20.300Z,99209.75
2022-08-20T19:01:49.946Z,99209.19
2022-08-20T19:04:33.003Z,99208.34
2022-08-20T19:07:54.530Z,99201.97
2022-08-20T19:10:43.893Z,99201.28
2022-08-20T19:13:57.577Z,99201.72
2022-08-20T19:16:38.112Z,99189.94
2022-08-20T19:19:21.186Z,99200.44
2022-08-20T19:22:11.392Z,99199.84
2022-08-20T19:24:54.175Z,99199.72
2022-08-20T19:27:25.513Z,99199.41
2022-08-20T19:29:56.792Z,99186.81
2022-08-20T19:32:30.407Z,99185.28
2022-08-20T19:35:00.043Z,99178.94
2022-08-20T19:37:39.783Z,99193.06
2022-08-20T19:40:38.136Z,99201.00
2022-08-20T19:43:14.579Z,99192.25
2022-08-20T19:46:06.934Z,99196.63
2022-08-20T19:49:06.567Z,99200.84
2022-08-20T19:51:47.894Z,99213.88
2022-08-20T19:54:43.207Z,99218.53
2022-08-20T19:57:11.551Z,99209.34
2022-08-20T19:59:40.173Z,99209.47
2022-08-20T20:02:20.525Z,99209.75
2022-08-20T20:04:58.969Z,99206.66
2022-08-20T20:07:35.787Z,99203.97
2022-08-20T20:10:06.331Z,99206.91
2022-08-20T20:12:34.470Z,99207.91
2022-08-20T20:15:02.304Z,99200.56
2022-08-20T20:17:36.103Z,99187.13
2022-08-20T20:20:35.940Z,99180.63
2022-08-20T20:23:17.449Z,99163.50
2022-08-20T20:25:59.587Z,99159.13
2022-08-20T20:29:00.893Z,99166.91
2022-08-20T20:31:32.394Z,99168.19
2022-08-20T20:34:06.984Z,99181.91
2022-08-20T20:36:41.094Z,99187.25
2022-08-20T20:39:25.005Z,99191.25
2022-08-20T20:41:56.271Z,99176.53
2022-08-20T20:44:37.057Z,99156.25
2022-08-20T20:47:35.955Z,99144.94
2022-08-20T20:50:12.198Z,99144.09
2022-08-20T20:52:54.836Z,99142.97
2022-08-20T20:55:27.046Z,99154.84
2022-08-20T20:57:59.066Z,99158.38
2022-08-20T21:00:35.822Z,99159.50
2022-08-20T21:03:04.052Z,99164.75
2022-08-20T21:05:33.740Z,99158.50
2022-08-20T21:08:06.440Z,99165.47
2022-08-20T21:10:36.727Z,99179.75
2022-08-20T21:13:08.986Z,99183.44
2022-08-20T21:15:38.225Z,99185.72
2022-08-20T21:18:14.492Z,99176.34
2022-08-20T21:20:42.584Z,99180.63
2022-08-20T21:23:12.674Z,99188.56
2022-08-20T21:25:40.927Z,99195.34
2022-08-20T21:28:08.961Z,99194.47
2022-08-20T21:30:36.657Z,99182.88
2022-08-20T21:33:06.941Z,99158.25
2022-08-20T21:35:35.147Z,99156.00
2022-08-20T21:38:21.028Z,99166.50
2022-08-20T21:40:48.210Z,99163.38
2022-08-20T21:43:18.825Z,99159.84
2022-08-20T21:45:49.524Z,99165.06
2022-08-20T21:48:17.849Z,99162.22
2022-08-20T21:50:47.995Z,99168.19
2022-08-20T21:53:15.180Z,99158.56
2022-08-20T21:55:44.293Z,99152.88
2022-08-20T21:58:12.475Z,99166.75
2022-08-20T22:00:55.818Z,99181.47
2022-08-20T22:03:38.524Z,99191.94
2022-08-20T22:06:09.697Z,99187.41
2022-08-20T22:08:38.248Z,99183.72
2022-08-20T22:11:10.814Z,99186.00
2022-08-20T22:13:40.586Z,99175.38
2022-08-20T22:16:19.254Z,99163.63
2022-08-20T22:18:50.489Z,99164.22
2022-08-20T22:21:33.302Z,99164.78
2022-08-20T22:24:04.103Z,99167.72
2022-08-20T22:26:32.586Z,99163.94
2022-08-20T22:28:59.802Z,99155.16
2022-08-20T22:31:31.774Z,99148.66
2022-08-20T22:33:59.318Z,99154.47
2022-08-20T22:36:32.725Z,99166.50
2022-08-20T22:38:59.991Z,99173.81
2022-08-20T22:41:29.253Z,99160.25
2022-08-20T22:44:12.559Z,99152.59
2022-08-20T22:46:47.089Z,99163.34
2022-08-20T22:49:22.715Z,99170.00
2022-08-20T22:51:50.690Z,99168.28
2022-08-20T22:54:25.923Z,99180.19
2022-08-20T22:56:55.341Z,99191.94
2022-08-20T22:59:24.742Z,99175.25
2022-08-20T23:01:53.955Z,99166.50
2022-08-20T23:04:40.959Z,99156.84
2022-08-20T23:07:13.736Z,99158.97
2022-08-20T23:09:42.181Z,99158.13
2022-08-20T23:12:10.062Z,99150.91
2022-08-20T23:14:37.795Z,99140.75
2022-08-20T23:17:13.666Z,99137.47
2022-08-20T23:19:43.077Z,99143.25
2022-08-20T23:22:11.357Z,99166.56
2022-08-20T23:24:41.344Z,99176.03
2022-08-20T23:27:33.099Z,99178.00
2022-08-20T23:30:17.593Z,99179.41
2022-08-20T23:33:14.736Z,99159.66
2022-08-20T23:35:45.578Z,99136.22
2022-08-20T23:38:16.959Z,99154.56
2022-08-20T23:40:47.048Z,99163.63
2022-08-20T23:43:23.061Z,99161.94
2022-08-20T23:46:02.804Z,99148.63
2022-08-20T23:48:32.205Z,99135.66
2022-08-20T23:51:02.358Z,99147.34
2022-08-20T23:53:48.020Z,99131.97
2022-08-20T23:56:26.815Z,99143.25
2022-08-20T23:58:55.985Z,99139.44
